Terminal Aerodrome Forecast
Issued by NWS

Home | Current Version | Previous Version | Text Only | Print | Product List | Glossary On
Versions: 1 2 3 4 5 6 7 8 9 10 11 12 13 14 15 16 17 18 19 20 21
000
FTUS43 KDMX 011135
TAFMCW
TAF
KMCW 011135Z 0112/0212 04012KT P6SM OVC025
     FM011700 02013KT 6SM BR VCSH OVC015
     FM012200 01011KT 6SM BR OVC025
     FM020200 35005KT P6SM OVC035
     FM021000 36003KT 5SM BR SCT003 BKN080=

USA.gov is the U.S. government's official web portal to all federal, state and local government web resources and services.